Warning: Javascript must be enabled to use all the features on this page!


Page Loading - Please Wait...

Click to hideNews Bulletins

Peak Streamflow for the Nation

USGS 09166950 LOST CANYON CREEK NEAR DOLORES, CO.

Montezuma County, Colorado
Hydrologic Unit Code 14030002
Latitude  37°26'46", Longitude 108°28'07" NAD27
Drainage area 71.2  square miles
Gage datum 7,030.00 feet above NGVD29
Output formats
Table
Graph
Tab-separated file
peakfq (watstore) format
Reselect output format
Water
Year
Date Gage
Height
(feet)
Stream-
flow
(cfs)
1984 1984-05-13 6.76 6785
1985 1985-04-15 6.75 6575
1986 1986-04-02 7.23 7445
1987 1987-04-17 6.65 6095
1988 1988-04-09 4.03 1395
1989 1989-04-09 4.56 2385
1990 1990-05-08 2.63 35.05
1991 1991-04-21 5.43 3855
1992 1992-04-14 5.83 4115
1993 1993-05-18 6.67 6235
1994 1994-05-07 5.26 3585
1995 1995-05-16 6.08 5265
1996 1996-04-28 3.74 1225
1997 1997-05-22 6.45 5495
1998 1998-05-03 6.27 5525
1999 1999-05-15 4.86 2695
2000 2000-04-14 4.43 1985
2001 2001-05-02 4.98 2625
2002 2002-09-12 2.022 5.605
2003 2003-04-27 4.36 1695
2004 2004-05-07 4.575 1522,5
2005 2005-04-18 6.91 6075
2006 2006-04-18 4.05 93.05
2007 2007-03-19 5.14 2385
2008 2008-04-20 6.37 4705
2009 2009-04-22 6.07 4035
2010 2010-04-18 6.33 4705
2011 2011-05-24 5.79 3215
2012 2012-04-01 4.85 1545
2013 2013-04-29 3.27 41.05
2014 2014-04-21 4.64 1075
2015 2015-05-20 6.21 3765
2016 2016-05-07 5.76 2585,9
2017 2017-04-19 6.66 5265
2018 2018-04-10 3.23 22.45
2019 2019-04-28 7.35 6465
2020 2020-04-29 3.35 37.25
2021 2021-05-02 2.46 6.415
?
  Peak Gage-Height Qualification Codes.
?
  Peak Streamflow Qualification Codes.